sensor_id;sensor_type;location;lat;lon;timestamp;P1;durP1;ratioP1;P2;durP2;ratioP2
48891;SDS011;50130;52.150;5.236;2023-03-25T00:00:07;16.0;;;3.3;;
48891;SDS011;50130;52.150;5.236;2023-03-25T00:01:46;19.0;;;3.4;;
48891;SDS011;50130;52.150;5.236;2023-03-25T00:05:00;16.4;;;3.0;;
48891;SDS011;50130;52.150;5.236;2023-03-25T00:06:36;17.61;;;3.5;;
48891;SDS011;50130;52.150;5.236;2023-03-25T00:08:12;16.8;;;3.3;;
48891;SDS011;50130;52.150;5.236;2023-03-25T00:11:24;16.3;;;3.5;;
48891;SDS011;50130;52.150;5.236;2023-03-25T00:13:00;17.61;;;3.7;;
48891;SDS011;50130;52.150;5.236;2023-03-25T00:14:36;17.0;;;3.4;;
48891;SDS011;50130;52.150;5.236;2023-03-25T00:17:50;19.5;;;3.4;;
48891;SDS011;50130;52.150;5.236;2023-03-25T00:19:26;20.41;;;3.9;;
48891;SDS011;50130;52.150;5.236;2023-03-25T00:21:03;19.2;;;3.8;;
48891;SDS011;50130;52.150;5.236;2023-03-25T00:22:41;14.4;;;3.0;;
48891;SDS011;50130;52.150;5.236;2023-03-25T00:25:53;16.11;;;3.4;;
48891;SDS011;50130;52.150;5.236;2023-03-25T00:27:29;15.2;;;3.8;;
48891;SDS011;50130;52.150;5.236;2023-03-25T00:29:06;17.8;;;3.7;;
48891;SDS011;50130;52.150;5.236;2023-03-25T00:32:19;17.5;;;3.4;;
48891;SDS011;50130;52.150;5.236;2023-03-25T00:33:55;25.1;;;4.2;;
48891;SDS011;50130;52.150;5.236;2023-03-25T00:35:31;17.7;;;3.4;;
48891;SDS011;50130;52.150;5.236;2023-03-25T00:38:43;21.2;;;3.5;;
48891;SDS011;50130;52.150;5.236;2023-03-25T00:40:24;16.9;;;3.3;;
48891;SDS011;50130;52.150;5.236;2023-03-25T00:42:01;21.9;;;3.5;;
48891;SDS011;50130;52.150;5.236;2023-03-25T00:43:37;17.11;;;3.9;;
48891;SDS011;50130;52.150;5.236;2023-03-25T00:46:49;17.8;;;4.0;;
48891;SDS011;50130;52.150;5.236;2023-03-25T00:48:25;17.5;;;3.8;;
48891;SDS011;50130;52.150;5.236;2023-03-25T00:50:01;18.7;;;4.2;;
48891;SDS011;50130;52.150;5.236;2023-03-25T00:53:15;17.61;;;3.7;;
48891;SDS011;50130;52.150;5.236;2023-03-25T00:54:51;17.41;;;3.5;;
48891;SDS011;50130;52.150;5.236;2023-03-25T00:56:27;18.0;;;4.0;;
48891;SDS011;50130;52.150;5.236;2023-03-25T00:59:40;15.7;;;3.7;;
48891;SDS011;50130;52.150;5.236;2023-03-25T01:01:17;20.11;;;3.6;;
48891;SDS011;50130;52.150;5.236;2023-03-25T01:02:55;15.8;;;3.2;;
48891;SDS011;50130;52.150;5.236;2023-03-25T01:04:31;16.8;;;3.6;;
48891;SDS011;50130;52.150;5.236;2023-03-25T01:07:46;17.11;;;3.7;;
48891;SDS011;50130;52.150;5.236;2023-03-25T01:09:22;17.8;;;3.7;;
48891;SDS011;50130;52.150;5.236;2023-03-25T01:10:58;17.2;;;3.9;;
48891;SDS011;50130;52.150;5.236;2023-03-25T01:14:11;20.9;;;4.41;;
48891;SDS011;50130;52.150;5.236;2023-03-25T01:15:50;16.0;;;3.6;;
48891;SDS011;50130;52.150;5.236;2023-03-25T01:17:26;16.5;;;4.3;;
48891;SDS011;50130;52.150;5.236;2023-03-25T01:20:39;18.3;;;4.0;;
48891;SDS011;50130;52.150;5.236;2023-03-25T01:22:15;17.7;;;3.6;;
48891;SDS011;50130;52.150;5.236;2023-03-25T01:23:51;16.3;;;3.4;;
48891;SDS011;50130;52.150;5.236;2023-03-25T01:25:27;17.7;;;3.8;;
48891;SDS011;50130;52.150;5.236;2023-03-25T01:28:40;18.7;;;3.4;;
48891;SDS011;50130;52.150;5.236;2023-03-25T01:31:53;15.9;;;3.4;;
48891;SDS011;50130;52.150;5.236;2023-03-25T01:35:06;17.11;;;3.8;;
48891;SDS011;50130;52.150;5.236;2023-03-25T01:36:43;19.7;;;3.8;;
48891;SDS011;50130;52.150;5.236;2023-03-25T01:38:19;21.1;;;4.1;;
48891;SDS011;50130;52.150;5.236;2023-03-25T01:41:32;20.3;;;4.5;;
48891;SDS011;50130;52.150;5.236;2023-03-25T01:43:10;21.0;;;4.2;;
48891;SDS011;50130;52.150;5.236;2023-03-25T01:45:20;20.9;;;4.1;;
48891;SDS011;50130;52.150;5.236;2023-03-25T01:47:27;20.5;;;4.1;;
48891;SDS011;50130;52.150;5.236;2023-03-25T01:49:05;18.41;;;4.0;;
48891;SDS011;50130;52.150;5.236;2023-03-25T01:50:45;19.41;;;3.9;;
48891;SDS011;50130;52.150;5.236;2023-03-25T01:54:07;16.61;;;4.1;;
48891;SDS011;50130;52.150;5.236;2023-03-25T01:55:44;22.9;;;4.2;;
48891;SDS011;50130;52.150;5.236;2023-03-25T01:57:21;18.0;;;3.7;;
48891;SDS011;50130;52.150;5.236;2023-03-25T01:58:59;19.11;;;3.8;;
48891;SDS011;50130;52.150;5.236;2023-03-25T02:02:18;20.0;;;3.8;;
48891;SDS011;50130;52.150;5.236;2023-03-25T02:03:57;18.5;;;3.4;;
48891;SDS011;50130;52.150;5.236;2023-03-25T02:05:36;24.0;;;4.41;;
48891;SDS011;50130;52.150;5.236;2023-03-25T02:07:18;15.9;;;3.6;;
48891;SDS011;50130;52.150;5.236;2023-03-25T02:10:33;15.9;;;3.6;;
48891;SDS011;50130;52.150;5.236;2023-03-25T02:12:10;16.7;;;4.3;;
48891;SDS011;50130;52.150;5.236;2023-03-25T02:13:46;19.5;;;3.9;;
48891;SDS011;50130;52.150;5.236;2023-03-25T02:17:01;17.11;;;4.0;;
48891;SDS011;50130;52.150;5.236;2023-03-25T02:18:49;18.8;;;3.8;;
48891;SDS011;50130;52.150;5.236;2023-03-25T02:20:50;17.8;;;4.2;;
48891;SDS011;50130;52.150;5.236;2023-03-25T02:27:44;17.7;;;4.0;;
48891;SDS011;50130;52.150;5.236;2023-03-25T02:29:35;21.8;;;3.9;;
48891;SDS011;50130;52.150;5.236;2023-03-25T02:32:52;16.11;;;4.1;;
48891;SDS011;50130;52.150;5.236;2023-03-25T02:35:46;15.2;;;3.8;;
48891;SDS011;50130;52.150;5.236;2023-03-25T02:39:54;20.41;;;4.2;;
48891;SDS011;50130;52.150;5.236;2023-03-25T02:41:36;17.0;;;3.9;;
48891;SDS011;50130;52.150;5.236;2023-03-25T02:43:19;23.3;;;4.7;;
48891;SDS011;50130;52.150;5.236;2023-03-25T02:45:02;19.8;;;4.1;;
48891;SDS011;50130;52.150;5.236;2023-03-25T02:48:36;18.0;;;3.8;;
48891;SDS011;50130;52.150;5.236;2023-03-25T02:50:18;17.2;;;3.4;;
48891;SDS011;50130;52.150;5.236;2023-03-25T02:52:01;19.61;;;4.3;;
48891;SDS011;50130;52.150;5.236;2023-03-25T02:53:43;19.91;;;4.41;;
48891;SDS011;50130;52.150;5.236;2023-03-25T02:55:23;23.2;;;5.11;;
48891;SDS011;50130;52.150;5.236;2023-03-25T02:58:41;19.61;;;4.0;;
48891;SDS011;50130;52.150;5.236;2023-03-25T03:00:22;16.4;;;4.8;;
48891;SDS011;50130;52.150;5.236;2023-03-25T03:02:02;19.91;;;3.7;;
48891;SDS011;50130;52.150;5.236;2023-03-25T03:05:20;18.5;;;3.6;;
48891;SDS011;50130;52.150;5.236;2023-03-25T03:06:58;17.41;;;3.9;;
48891;SDS011;50130;52.150;5.236;2023-03-25T03:08:42;19.2;;;4.0;;
48891;SDS011;50130;52.150;5.236;2023-03-25T03:11:21;21.6;;;4.3;;
48891;SDS011;50130;52.150;5.236;2023-03-25T03:13:05;24.5;;;4.7;;
48891;SDS011;50130;52.150;5.236;2023-03-25T03:14:57;18.0;;;3.8;;
48891;SDS011;50130;52.150;5.236;2023-03-25T03:16:43;24.5;;;5.4;;
48891;SDS011;50130;52.150;5.236;2023-03-25T03:18:27;23.1;;;4.8;;
48891;SDS011;50130;52.150;5.236;2023-03-25T03:22:12;25.1;;;4.61;;
48891;SDS011;50130;52.150;5.236;2023-03-25T03:23:59;22.0;;;5.0;;
48891;SDS011;50130;52.150;5.236;2023-03-25T03:25:44;27.2;;;4.7;;
48891;SDS011;50130;52.150;5.236;2023-03-25T03:27:26;24.3;;;4.91;;
48891;SDS011;50130;52.150;5.236;2023-03-25T03:29:08;25.0;;;5.11;;
48891;SDS011;50130;52.150;5.236;2023-03-25T03:32:36;22.2;;;5.11;;
48891;SDS011;50130;52.150;5.236;2023-03-25T03:34:19;25.9;;;5.2;;
48891;SDS011;50130;52.150;5.236;2023-03-25T03:36:01;25.7;;;4.91;;
48891;SDS011;50130;52.150;5.236;2023-03-25T03:37:43;24.9;;;5.2;;
48891;SDS011;50130;52.150;5.236;2023-03-25T03:39:27;23.9;;;5.11;;
48891;SDS011;50130;52.150;5.236;2023-03-25T03:42:49;25.2;;;5.5;;
48891;SDS011;50130;52.150;5.236;2023-03-25T03:44:30;26.0;;;5.11;;
48891;SDS011;50130;52.150;5.236;2023-03-25T03:46:12;22.9;;;4.8;;
48891;SDS011;50130;52.150;5.236;2023-03-25T03:47:53;24.5;;;4.91;;
48891;SDS011;50130;52.150;5.236;2023-03-25T03:51:15;24.7;;;5.0;;
48891;SDS011;50130;52.150;5.236;2023-03-25T03:52:59;22.6;;;4.61;;
48891;SDS011;50130;52.150;5.236;2023-03-25T03:54:43;22.5;;;4.61;;
48891;SDS011;50130;52.150;5.236;2023-03-25T03:56:24;25.8;;;4.3;;
48891;SDS011;50130;52.150;5.236;2023-03-25T03:59:47;21.8;;;4.91;;
48891;SDS011;50130;52.150;5.236;2023-03-25T04:01:32;26.3;;;4.91;;
48891;SDS011;50130;52.150;5.236;2023-03-25T04:03:14;22.4;;;5.4;;
48891;SDS011;50130;52.150;5.236;2023-03-25T04:04:55;23.7;;;5.11;;
48891;SDS011;50130;52.150;5.236;2023-03-25T04:06:32;27.0;;;5.2;;
48891;SDS011;50130;52.150;5.236;2023-03-25T04:10:02;29.9;;;4.61;;
48891;SDS011;50130;52.150;5.236;2023-03-25T04:11:46;28.8;;;5.11;;
48891;SDS011;50130;52.150;5.236;2023-03-25T04:13:32;28.6;;;5.0;;
48891;SDS011;50130;52.150;5.236;2023-03-25T04:15:16;24.5;;;5.0;;
48891;SDS011;50130;52.150;5.236;2023-03-25T04:18:30;28.1;;;5.0;;
48891;SDS011;50130;52.150;5.236;2023-03-25T04:20:06;25.3;;;6.0;;
48891;SDS011;50130;52.150;5.236;2023-03-25T04:21:45;25.8;;;4.7;;
48891;SDS011;50130;52.150;5.236;2023-03-25T04:23:22;30.6;;;5.3;;
48891;SDS011;50130;52.150;5.236;2023-03-25T04:26:34;25.4;;;4.8;;
48891;SDS011;50130;52.150;5.236;2023-03-25T04:28:11;24.7;;;5.3;;
48891;SDS011;50130;52.150;5.236;2023-03-25T04:29:47;26.7;;;5.3;;
48891;SDS011;50130;52.150;5.236;2023-03-25T04:33:00;27.8;;;5.2;;
48891;SDS011;50130;52.150;5.236;2023-03-25T04:34:36;23.9;;;4.8;;
48891;SDS011;50130;52.150;5.236;2023-03-25T04:36:12;25.6;;;4.61;;
48891;SDS011;50130;52.150;5.236;2023-03-25T04:39:25;26.6;;;5.3;;
48891;SDS011;50130;52.150;5.236;2023-03-25T04:41:02;13.1;;;2.8;;
48891;SDS011;50130;52.150;5.236;2023-03-25T04:42:38;12.4;;;2.7;;
48891;SDS011;50130;52.150;5.236;2023-03-25T04:44:14;19.41;;;3.9;;
48891;SDS011;50130;52.150;5.236;2023-03-25T04:47:26;23.0;;;4.1;;
48891;SDS011;50130;52.150;5.236;2023-03-25T04:49:02;19.41;;;3.5;;
48891;SDS011;50130;52.150;5.236;2023-03-25T04:50:39;17.91;;;4.1;;
48891;SDS011;50130;52.150;5.236;2023-03-25T04:53:52;22.9;;;4.7;;
48891;SDS011;50130;52.150;5.236;2023-03-25T04:55:28;22.9;;;4.7;;
48891;SDS011;50130;52.150;5.236;2023-03-25T04:57:04;30.4;;;6.1;;
48891;SDS011;50130;52.150;5.236;2023-03-25T05:00:18;28.9;;;5.3;;
48891;SDS011;50130;52.150;5.236;2023-03-25T05:01:55;28.9;;;5.8;;
48891;SDS011;50130;52.150;5.236;2023-03-25T05:03:32;32.1;;;5.8;;
48891;SDS011;50130;52.150;5.236;2023-03-25T05:05:09;33.3;;;6.1;;
48891;SDS011;50130;52.150;5.236;2023-03-25T05:08:24;29.9;;;5.6;;
48891;SDS011;50130;52.150;5.236;2023-03-25T05:10:00;30.1;;;5.6;;
48891;SDS011;50130;52.150;5.236;2023-03-25T05:11:37;32.71;;;6.0;;
48891;SDS011;50130;52.150;5.236;2023-03-25T05:14:52;32.8;;;5.3;;
48891;SDS011;50130;52.150;5.236;2023-03-25T05:16:28;32.6;;;6.2;;
48891;SDS011;50130;52.150;5.236;2023-03-25T05:18:05;30.4;;;5.4;;
48891;SDS011;50130;52.150;5.236;2023-03-25T05:21:18;31.2;;;5.4;;
48891;SDS011;50130;52.150;5.236;2023-03-25T05:22:54;28.7;;;5.6;;
48891;SDS011;50130;52.150;5.236;2023-03-25T05:24:30;28.7;;;5.7;;
48891;SDS011;50130;52.150;5.236;2023-03-25T05:26:07;34.6;;;5.5;;
48891;SDS011;50130;52.150;5.236;2023-03-25T05:29:20;35.31;;;5.9;;
48891;SDS011;50130;52.150;5.236;2023-03-25T05:30:56;38.9;;;6.2;;
48891;SDS011;50130;52.150;5.236;2023-03-25T05:32:32;35.6;;;5.9;;
48891;SDS011;50130;52.150;5.236;2023-03-25T05:35:45;37.5;;;6.0;;
48891;SDS011;50130;52.150;5.236;2023-03-25T05:37:21;36.21;;;6.3;;
48891;SDS011;50130;52.150;5.236;2023-03-25T05:38:58;35.31;;;5.9;;
48891;SDS011;50130;52.150;5.236;2023-03-25T05:42:10;29.1;;;5.7;;
48891;SDS011;50130;52.150;5.236;2023-03-25T05:43:46;36.31;;;6.9;;
48891;SDS011;50130;52.150;5.236;2023-03-25T05:45:22;35.4;;;6.0;;
48891;SDS011;50130;52.150;5.236;2023-03-25T05:46:58;32.0;;;6.3;;
48891;SDS011;50130;52.150;5.236;2023-03-25T05:50:11;35.5;;;6.0;;
48891;SDS011;50130;52.150;5.236;2023-03-25T05:51:48;37.0;;;6.6;;
48891;SDS011;50130;52.150;5.236;2023-03-25T05:53:24;35.31;;;5.8;;
48891;SDS011;50130;52.150;5.236;2023-03-25T05:56:36;30.9;;;5.7;;
48891;SDS011;50130;52.150;5.236;2023-03-25T05:58:12;35.1;;;6.4;;
48891;SDS011;50130;52.150;5.236;2023-03-25T05:59:48;32.71;;;6.2;;
48891;SDS011;50130;52.150;5.236;2023-03-25T06:03:01;36.31;;;6.3;;
48891;SDS011;50130;52.150;5.236;2023-03-25T06:04:37;36.5;;;7.3;;
48891;SDS011;50130;52.150;5.236;2023-03-25T06:06:14;35.6;;;6.6;;
48891;SDS011;50130;52.150;5.236;2023-03-25T06:07:50;32.21;;;6.3;;
48891;SDS011;50130;52.150;5.236;2023-03-25T06:11:04;38.1;;;6.3;;
48891;SDS011;50130;52.150;5.236;2023-03-25T06:12:40;34.1;;;6.4;;
48891;SDS011;50130;52.150;5.236;2023-03-25T06:14:16;38.0;;;7.3;;
48891;SDS011;50130;52.150;5.236;2023-03-25T06:17:28;37.31;;;6.5;;
48891;SDS011;50130;52.150;5.236;2023-03-25T06:19:04;31.4;;;6.2;;
48891;SDS011;50130;52.150;5.236;2023-03-25T06:20:40;31.4;;;5.9;;
48891;SDS011;50130;52.150;5.236;2023-03-25T06:23:54;36.4;;;7.0;;
48891;SDS011;50130;52.150;5.236;2023-03-25T06:25:32;37.4;;;6.0;;
48891;SDS011;50130;52.150;5.236;2023-03-25T06:27:10;38.4;;;7.7;;
48891;SDS011;50130;52.150;5.236;2023-03-25T06:28:49;34.1;;;6.4;;
48891;SDS011;50130;52.150;5.236;2023-03-25T06:32:01;33.21;;;5.9;;
48891;SDS011;50130;52.150;5.236;2023-03-25T06:33:38;32.8;;;6.2;;
48891;SDS011;50130;52.150;5.236;2023-03-25T06:35:15;42.5;;;6.8;;
48891;SDS011;50130;52.150;5.236;2023-03-25T06:38:28;38.5;;;6.8;;
48891;SDS011;50130;52.150;5.236;2023-03-25T06:40:05;32.71;;;6.4;;
48891;SDS011;50130;52.150;5.236;2023-03-25T06:41:43;31.5;;;5.7;;
48891;SDS011;50130;52.150;5.236;2023-03-25T06:44:55;36.4;;;6.3;;
48891;SDS011;50130;52.150;5.236;2023-03-25T06:46:32;31.0;;;6.2;;
48891;SDS011;50130;52.150;5.236;2023-03-25T06:48:08;32.1;;;6.6;;
48891;SDS011;50130;52.150;5.236;2023-03-25T06:49:44;36.0;;;6.4;;
48891;SDS011;50130;52.150;5.236;2023-03-25T06:52:56;32.9;;;5.8;;
48891;SDS011;50130;52.150;5.236;2023-03-25T06:54:33;35.9;;;6.0;;
48891;SDS011;50130;52.150;5.236;2023-03-25T06:56:09;31.7;;;6.3;;
48891;SDS011;50130;52.150;5.236;2023-03-25T06:59:22;39.21;;;6.1;;
48891;SDS011;50130;52.150;5.236;2023-03-25T07:00:58;34.0;;;6.0;;
48891;SDS011;50130;52.150;5.236;2023-03-25T07:02:34;33.3;;;5.4;;
48891;SDS011;50130;52.150;5.236;2023-03-25T07:05:46;33.3;;;5.4;;
48891;SDS011;50130;52.150;5.236;2023-03-25T07:07:23;35.81;;;5.9;;
48891;SDS011;50130;52.150;5.236;2023-03-25T07:09:01;35.71;;;5.5;;
48891;SDS011;50130;52.150;5.236;2023-03-25T07:10:37;33.5;;;5.9;;
48891;SDS011;50130;52.150;5.236;2023-03-25T07:13:49;36.1;;;6.5;;
48891;SDS011;50130;52.150;5.236;2023-03-25T07:15:25;34.31;;;5.9;;
48891;SDS011;50130;52.150;5.236;2023-03-25T07:17:01;37.9;;;6.0;;
48891;SDS011;50130;52.150;5.236;2023-03-25T07:20:14;37.6;;;6.3;;
48891;SDS011;50130;52.150;5.236;2023-03-25T07:21:51;35.6;;;6.2;;
48891;SDS011;50130;52.150;5.236;2023-03-25T07:23:27;35.4;;;5.9;;
48891;SDS011;50130;52.150;5.236;2023-03-25T07:26:40;41.5;;;6.9;;
48891;SDS011;50130;52.150;5.236;2023-03-25T07:28:16;38.4;;;6.4;;
48891;SDS011;50130;52.150;5.236;2023-03-25T07:29:53;30.7;;;5.9;;
48891;SDS011;50130;52.150;5.236;2023-03-25T07:33:06;35.71;;;6.5;;
48891;SDS011;50130;52.150;5.236;2023-03-25T07:34:43;36.21;;;5.6;;
48891;SDS011;50130;52.150;5.236;2023-03-25T07:36:19;37.21;;;5.9;;
48891;SDS011;50130;52.150;5.236;2023-03-25T07:37:55;33.5;;;6.2;;
48891;SDS011;50130;52.150;5.236;2023-03-25T07:41:08;37.81;;;6.2;;
48891;SDS011;50130;52.150;5.236;2023-03-25T07:42:47;34.4;;;6.7;;
48891;SDS011;50130;52.150;5.236;2023-03-25T07:44:23;37.1;;;6.3;;
48891;SDS011;50130;52.150;5.236;2023-03-25T07:47:35;32.5;;;5.5;;
48891;SDS011;50130;52.150;5.236;2023-03-25T07:49:12;37.5;;;6.2;;
48891;SDS011;50130;52.150;5.236;2023-03-25T07:50:50;34.71;;;5.9;;
48891;SDS011;50130;52.150;5.236;2023-03-25T07:52:27;36.31;;;5.8;;
48891;SDS011;50130;52.150;5.236;2023-03-25T07:55:40;38.0;;;6.1;;
48891;SDS011;50130;52.150;5.236;2023-03-25T07:57:16;32.6;;;6.2;;
48891;SDS011;50130;52.150;5.236;2023-03-25T07:58:52;35.5;;;7.0;;
48891;SDS011;50130;52.150;5.236;2023-03-25T08:02:05;38.21;;;6.5;;
48891;SDS011;50130;52.150;5.236;2023-03-25T08:03:41;40.31;;;6.9;;
48891;SDS011;50130;52.150;5.236;2023-03-25T08:05:17;30.6;;;6.8;;
48891;SDS011;50130;52.150;5.236;2023-03-25T08:08:30;39.9;;;6.1;;
48891;SDS011;50130;52.150;5.236;2023-03-25T08:10:06;37.5;;;6.6;;
48891;SDS011;50130;52.150;5.236;2023-03-25T08:11:43;41.4;;;6.6;;
48891;SDS011;50130;52.150;5.236;2023-03-25T08:14:55;31.3;;;6.0;;
48891;SDS011;50130;52.150;5.236;2023-03-25T08:16:31;35.0;;;6.0;;
48891;SDS011;50130;52.150;5.236;2023-03-25T08:18:08;36.5;;;6.6;;
48891;SDS011;50130;52.150;5.236;2023-03-25T08:19:44;34.9;;;6.0;;
48891;SDS011;50130;52.150;5.236;2023-03-25T08:22:56;34.4;;;6.0;;
48891;SDS011;50130;52.150;5.236;2023-03-25T08:24:32;33.21;;;5.8;;
48891;SDS011;50130;52.150;5.236;2023-03-25T08:26:08;33.5;;;5.9;;
48891;SDS011;50130;52.150;5.236;2023-03-25T08:29:21;32.21;;;5.3;;
48891;SDS011;50130;52.150;5.236;2023-03-25T08:30:57;32.9;;;6.0;;
48891;SDS011;50130;52.150;5.236;2023-03-25T08:32:34;31.3;;;5.7;;
48891;SDS011;50130;52.150;5.236;2023-03-25T08:35:48;29.2;;;6.3;;
48891;SDS011;50130;52.150;5.236;2023-03-25T08:37:24;37.4;;;6.1;;
48891;SDS011;50130;52.150;5.236;2023-03-25T08:39:00;27.3;;;4.91;;
48891;SDS011;50130;52.150;5.236;2023-03-25T08:40:37;35.1;;;5.7;;
48891;SDS011;50130;52.150;5.236;2023-03-25T08:43:53;33.9;;;6.5;;
48891;SDS011;50130;52.150;5.236;2023-03-25T08:45:29;31.3;;;5.5;;
48891;SDS011;50130;52.150;5.236;2023-03-25T08:47:06;38.81;;;6.4;;
48891;SDS011;50130;52.150;5.236;2023-03-25T08:50:19;28.1;;;5.7;;
48891;SDS011;50130;52.150;5.236;2023-03-25T08:51:56;31.0;;;6.0;;
48891;SDS011;50130;52.150;5.236;2023-03-25T08:53:33;28.8;;;6.1;;
48891;SDS011;50130;52.150;5.236;2023-03-25T08:56:46;33.3;;;5.6;;
48891;SDS011;50130;52.150;5.236;2023-03-25T08:58:22;32.0;;;6.0;;
48891;SDS011;50130;52.150;5.236;2023-03-25T08:59:59;30.6;;;5.9;;
48891;SDS011;50130;52.150;5.236;2023-03-25T09:01:35;31.7;;;6.0;;
48891;SDS011;50130;52.150;5.236;2023-03-25T09:04:48;29.0;;;5.7;;
48891;SDS011;50130;52.150;5.236;2023-03-25T09:06:24;30.1;;;5.8;;
48891;SDS011;50130;52.150;5.236;2023-03-25T09:08:00;33.6;;;5.6;;
48891;SDS011;50130;52.150;5.236;2023-03-25T09:11:12;29.9;;;5.7;;
48891;SDS011;50130;52.150;5.236;2023-03-25T09:12:48;28.0;;;6.0;;
48891;SDS011;50130;52.150;5.236;2023-03-25T09:14:24;29.2;;;6.4;;
48891;SDS011;50130;52.150;5.236;2023-03-25T09:17:37;29.5;;;5.9;;
48891;SDS011;50130;52.150;5.236;2023-03-25T09:19:14;31.4;;;5.7;;
48891;SDS011;50130;52.150;5.236;2023-03-25T09:20:50;31.3;;;6.0;;
48891;SDS011;50130;52.150;5.236;2023-03-25T09:22:27;29.0;;;6.3;;
48891;SDS011;50130;52.150;5.236;2023-03-25T09:25:39;28.4;;;5.4;;
48891;SDS011;50130;52.150;5.236;2023-03-25T09:27:15;26.3;;;6.1;;
48891;SDS011;50130;52.150;5.236;2023-03-25T09:28:52;25.7;;;5.3;;
48891;SDS011;50130;52.150;5.236;2023-03-25T09:32:04;31.4;;;5.5;;
48891;SDS011;50130;52.150;5.236;2023-03-25T09:33:40;27.5;;;5.5;;
48891;SDS011;50130;52.150;5.236;2023-03-25T09:35:16;30.6;;;5.8;;
48891;SDS011;50130;52.150;5.236;2023-03-25T09:38:30;32.6;;;6.2;;
48891;SDS011;50130;52.150;5.236;2023-03-25T09:40:08;31.6;;;6.2;;
48891;SDS011;50130;52.150;5.236;2023-03-25T09:41:53;28.8;;;6.5;;
48891;SDS011;50130;52.150;5.236;2023-03-25T09:44:08;31.2;;;6.1;;
48891;SDS011;50130;52.150;5.236;2023-03-25T09:45:53;28.1;;;5.8;;
48891;SDS011;50130;52.150;5.236;2023-03-25T09:47:31;30.0;;;5.7;;
48891;SDS011;50130;52.150;5.236;2023-03-25T09:50:51;28.8;;;6.0;;
48891;SDS011;50130;52.150;5.236;2023-03-25T09:52:28;26.9;;;5.9;;
48891;SDS011;50130;52.150;5.236;2023-03-25T09:54:14;27.0;;;6.1;;
48891;SDS011;50130;52.150;5.236;2023-03-25T09:55:57;25.8;;;5.4;;
48891;SDS011;50130;52.150;5.236;2023-03-25T09:59:20;28.9;;;6.1;;
48891;SDS011;50130;52.150;5.236;2023-03-25T10:01:02;25.6;;;5.7;;
48891;SDS011;50130;52.150;5.236;2023-03-25T10:02:54;26.7;;;6.1;;
48891;SDS011;50130;52.150;5.236;2023-03-25T10:04:48;29.1;;;6.2;;
48891;SDS011;50130;52.150;5.236;2023-03-25T10:06:40;29.9;;;6.4;;
48891;SDS011;50130;52.150;5.236;2023-03-25T10:08:27;28.9;;;5.9;;
48891;SDS011;50130;52.150;5.236;2023-03-25T10:12:03;29.5;;;6.0;;
48891;SDS011;50130;52.150;5.236;2023-03-25T10:13:49;25.4;;;5.6;;
48891;SDS011;50130;52.150;5.236;2023-03-25T10:15:34;26.1;;;5.7;;
48891;SDS011;50130;52.150;5.236;2023-03-25T10:17:20;29.7;;;6.2;;
48891;SDS011;50130;52.150;5.236;2023-03-25T10:19:14;29.4;;;5.7;;
48891;SDS011;50130;52.150;5.236;2023-03-25T10:21:02;28.4;;;5.8;;
48891;SDS011;50130;52.150;5.236;2023-03-25T10:24:38;35.6;;;6.8;;
48891;SDS011;50130;52.150;5.236;2023-03-25T10:26:23;25.0;;;5.6;;
48891;SDS011;50130;52.150;5.236;2023-03-25T10:28:04;30.8;;;6.3;;
48891;SDS011;50130;52.150;5.236;2023-03-25T10:29:48;24.3;;;5.5;;
48891;SDS011;50130;52.150;5.236;2023-03-25T10:31:30;26.4;;;5.3;;
48891;SDS011;50130;52.150;5.236;2023-03-25T10:34:59;27.7;;;5.5;;
48891;SDS011;50130;52.150;5.236;2023-03-25T10:36:39;28.8;;;6.3;;
48891;SDS011;50130;52.150;5.236;2023-03-25T10:38:21;25.7;;;5.8;;
48891;SDS011;50130;52.150;5.236;2023-03-25T10:40:01;21.4;;;5.2;;
48891;SDS011;50130;52.150;5.236;2023-03-25T10:43:33;23.9;;;5.2;;
48891;SDS011;50130;52.150;5.236;2023-03-25T10:45:13;23.9;;;4.5;;
48891;SDS011;50130;52.150;5.236;2023-03-25T10:46:52;23.7;;;4.7;;
48891;SDS011;50130;52.150;5.236;2023-03-25T10:48:33;28.0;;;5.11;;
48891;SDS011;50130;52.150;5.236;2023-03-25T10:51:50;22.0;;;4.7;;
48891;SDS011;50130;52.150;5.236;2023-03-25T10:53:27;24.2;;;4.91;;
48891;SDS011;50130;52.150;5.236;2023-03-25T10:55:05;25.9;;;5.6;;
48891;SDS011;50130;52.150;5.236;2023-03-25T10:56:59;22.4;;;5.0;;
48891;SDS011;50130;52.150;5.236;2023-03-25T10:58:40;27.4;;;5.4;;
48891;SDS011;50130;52.150;5.236;2023-03-25T11:01:57;21.9;;;5.11;;
48891;SDS011;50130;52.150;5.236;2023-03-25T11:03:34;22.3;;;4.8;;
48891;SDS011;50130;52.150;5.236;2023-03-25T11:05:13;27.0;;;5.4;;
48891;SDS011;50130;52.150;5.236;2023-03-25T11:08:33;23.6;;;4.61;;
48891;SDS011;50130;52.150;5.236;2023-03-25T11:10:13;23.6;;;4.61;;
48891;SDS011;50130;52.150;5.236;2023-03-25T11:11:53;28.3;;;4.8;;
48891;SDS011;50130;52.150;5.236;2023-03-25T11:13:30;20.9;;;4.91;;
48891;SDS011;50130;52.150;5.236;2023-03-25T11:16:51;23.6;;;5.11;;
48891;SDS011;50130;52.150;5.236;2023-03-25T11:18:33;22.1;;;5.2;;
48891;SDS011;50130;52.150;5.236;2023-03-25T11:20:16;22.0;;;4.91;;
48891;SDS011;50130;52.150;5.236;2023-03-25T11:21:56;22.8;;;5.0;;
48891;SDS011;50130;52.150;5.236;2023-03-25T11:25:22;20.9;;;4.41;;
48891;SDS011;50130;52.150;5.236;2023-03-25T11:27:01;24.1;;;4.8;;
48891;SDS011;50130;52.150;5.236;2023-03-25T11:28:38;22.7;;;4.61;;
48891;SDS011;50130;52.150;5.236;2023-03-25T11:30:17;21.7;;;4.5;;
48891;SDS011;50130;52.150;5.236;2023-03-25T11:33:40;21.1;;;4.3;;
48891;SDS011;50130;52.150;5.236;2023-03-25T11:35:21;19.91;;;4.41;;
48891;SDS011;50130;52.150;5.236;2023-03-25T11:37:01;18.2;;;4.2;;
48891;SDS011;50130;52.150;5.236;2023-03-25T11:38:44;20.5;;;5.4;;
48891;SDS011;50130;52.150;5.236;2023-03-25T11:42:09;22.0;;;5.2;;
48891;SDS011;50130;52.150;5.236;2023-03-25T11:43:55;23.9;;;5.6;;
48891;SDS011;50130;52.150;5.236;2023-03-25T11:45:33;22.4;;;4.8;;
48891;SDS011;50130;52.150;5.236;2023-03-25T11:47:11;20.41;;;4.61;;
48891;SDS011;50130;52.150;5.236;2023-03-25T11:49:06;23.2;;;5.6;;
48891;SDS011;50130;52.150;5.236;2023-03-25T11:52:23;20.9;;;5.2;;
48891;SDS011;50130;52.150;5.236;2023-03-25T11:54:03;19.5;;;4.5;;
48891;SDS011;50130;52.150;5.236;2023-03-25T11:55:44;22.1;;;4.5;;
48891;SDS011;50130;52.150;5.236;2023-03-25T11:57:23;21.0;;;4.61;;
48891;SDS011;50130;52.150;5.236;2023-03-25T12:00:45;21.9;;;5.11;;
48891;SDS011;50130;52.150;5.236;2023-03-25T12:02:23;20.3;;;4.5;;
48891;SDS011;50130;52.150;5.236;2023-03-25T12:04:06;19.41;;;4.7;;
48891;SDS011;50130;52.150;5.236;2023-03-25T12:05:56;19.41;;;4.91;;
48891;SDS011;50130;52.150;5.236;2023-03-25T12:07:43;19.8;;;4.5;;
48891;SDS011;50130;52.150;5.236;2023-03-25T12:10:59;18.5;;;4.2;;
48891;SDS011;50130;52.150;5.236;2023-03-25T12:12:45;20.8;;;4.5;;
48891;SDS011;50130;52.150;5.236;2023-03-25T12:14:34;24.2;;;5.11;;
48891;SDS011;50130;52.150;5.236;2023-03-25T12:16:25;22.4;;;4.7;;
48891;SDS011;50130;52.150;5.236;2023-03-25T12:18:17;16.7;;;4.41;;
48891;SDS011;50130;52.150;5.236;2023-03-25T12:20:19;19.2;;;4.7;;
48891;SDS011;50130;52.150;5.236;2023-03-25T12:23:56;19.3;;;4.5;;
48891;SDS011;50130;52.150;5.236;2023-03-25T12:25:48;18.2;;;4.0;;
48891;SDS011;50130;52.150;5.236;2023-03-25T12:27:37;19.61;;;4.7;;
48891;SDS011;50130;52.150;5.236;2023-03-25T12:29:30;22.2;;;4.8;;
48891;SDS011;50130;52.150;5.236;2023-03-25T12:31:19;22.4;;;5.11;;
48891;SDS011;50130;52.150;5.236;2023-03-25T12:33:08;21.5;;;4.8;;
48891;SDS011;50130;52.150;5.236;2023-03-25T12:35:02;20.7;;;4.91;;
48891;SDS011;50130;52.150;5.236;2023-03-25T12:38:44;22.8;;;5.0;;
48891;SDS011;50130;52.150;5.236;2023-03-25T12:40:32;22.4;;;4.41;;
48891;SDS011;50130;52.150;5.236;2023-03-25T12:42:26;19.11;;;4.5;;
48891;SDS011;50130;52.150;5.236;2023-03-25T12:44:13;19.5;;;4.7;;
48891;SDS011;50130;52.150;5.236;2023-03-25T12:46:09;17.11;;;4.1;;
48891;SDS011;50130;52.150;5.236;2023-03-25T12:48:01;15.9;;;3.8;;
48891;SDS011;50130;52.150;5.236;2023-03-25T12:49:52;16.61;;;3.8;;
48891;SDS011;50130;52.150;5.236;2023-03-25T12:51:56;19.61;;;4.41;;
48891;SDS011;50130;52.150;5.236;2023-03-25T12:53:42;16.8;;;4.2;;